createdAt,value
2022-08-28T00:00:08.310Z,23.70
2022-08-28T00:00:42.001Z,23.68
2022-08-28T00:01:16.867Z,23.64
2022-08-28T00:01:49.022Z,23.57
2022-08-28T00:02:21.340Z,23.52
2022-08-28T00:02:56.520Z,23.51
2022-08-28T00:03:30.375Z,23.48
2022-08-28T00:04:02.966Z,23.48
2022-08-28T00:04:38.743Z,23.43
2022-08-28T00:05:15.391Z,23.35
2022-08-28T00:05:47.850Z,23.31
2022-08-28T00:06:22.672Z,23.27
2022-08-28T00:06:54.963Z,23.22
2022-08-28T00:07:27.258Z,23.20
2022-08-28T00:08:02.684Z,23.21
2022-08-28T00:08:35.426Z,23.21
2022-08-28T00:09:08.247Z,23.20
2022-08-28T00:09:46.190Z,23.20
2022-08-28T00:10:22.341Z,23.20
2022-08-28T00:10:54.889Z,23.24
2022-08-28T00:11:29.672Z,23.29
2022-08-28T00:12:01.965Z,23.33
2022-08-28T00:12:35.657Z,23.37
2022-08-28T00:13:15.554Z,23.41
2022-08-28T00:13:47.939Z,23.45
2022-08-28T00:14:21.227Z,23.48
2022-08-28T00:14:56.184Z,23.49
2022-08-28T00:15:33.456Z,23.51
2022-08-28T00:16:06.700Z,23.53
2022-08-28T00:16:41.567Z,23.56
2022-08-28T00:17:13.774Z,23.61
2022-08-28T00:17:46.087Z,23.64
2022-08-28T00:18:21.341Z,23.69
2022-08-28T00:18:53.502Z,23.71
2022-08-28T00:19:25.899Z,23.72
2022-08-28T00:20:00.678Z,23.71
2022-08-28T00:20:35.933Z,23.69
2022-08-28T00:21:10.763Z,23.68
2022-08-28T00:21:43.047Z,23.67
2022-08-28T00:22:15.314Z,23.68
2022-08-28T00:22:48.676Z,23.68
2022-08-28T00:23:23.551Z,23.70
2022-08-28T00:23:57.457Z,23.69
2022-08-28T00:24:29.708Z,23.72
2022-08-28T00:25:04.556Z,23.72
2022-08-28T00:25:37.564Z,23.75
2022-08-28T00:26:10.159Z,23.76
2022-08-28T00:26:58.127Z,23.75
2022-08-28T00:27:45.341Z,23.76
2022-08-28T00:28:24.334Z,23.77
2022-08-28T00:28:56.790Z,23.80
2022-08-28T00:29:29.801Z,23.82
2022-08-28T00:30:02.117Z,23.85
2022-08-28T00:30:40.225Z,23.85
2022-08-28T00:31:12.664Z,23.86
2022-08-28T00:31:47.641Z,23.86
2022-08-28T00:32:23.667Z,23.87
2022-08-28T00:33:01.229Z,23.90
2022-08-28T00:33:35.027Z,23.90
2022-08-28T00:34:08.499Z,23.93
2022-08-28T00:34:43.594Z,23.95
2022-08-28T00:35:17.636Z,23.96
2022-08-28T00:35:55.908Z,23.97
2022-08-28T00:36:29.047Z,23.98
2022-08-28T00:37:01.272Z,23.98
2022-08-28T00:37:33.839Z,24.01
2022-08-28T00:38:08.975Z,24.01
2022-08-28T00:38:42.121Z,24.04
2022-08-28T00:39:14.959Z,24.03
2022-08-28T00:39:53.881Z,24.01
2022-08-28T00:40:32.437Z,23.98
2022-08-28T00:41:08.002Z,23.97
2022-08-28T00:41:41.266Z,24.03
2022-08-28T00:42:13.860Z,24.00
2022-08-28T00:42:50.050Z,24.02
2022-08-28T00:43:33.741Z,24.01
2022-08-28T00:44:13.828Z,23.99
2022-08-28T00:44:46.410Z,23.97
2022-08-28T00:45:20.356Z,23.98
2022-08-28T00:45:55.338Z,23.97
2022-08-28T00:46:27.546Z,23.98
2022-08-28T00:47:00.376Z,23.97
2022-08-28T00:47:35.500Z,23.98
2022-08-28T00:48:08.315Z,23.99
2022-08-28T00:48:41.576Z,23.98
2022-08-28T00:49:18.828Z,23.97
2022-08-28T00:49:53.166Z,23.97
2022-08-28T00:50:28.369Z,23.97
2022-08-28T00:51:18.933Z,23.98
2022-08-28T00:52:08.211Z,23.94
2022-08-28T00:52:49.120Z,23.92
2022-08-28T00:53:23.491Z,23.92
2022-08-28T00:54:01.390Z,23.92
2022-08-28T00:54:39.919Z,23.91
2022-08-28T00:55:20.038Z,23.94
2022-08-28T00:55:52.246Z,23.91
2022-08-28T00:56:25.725Z,23.91
2022-08-28T00:57:00.596Z,23.93
2022-08-28T00:57:36.291Z,23.92
2022-08-28T00:58:13.224Z,23.93
2022-08-28T00:58:47.323Z,23.92
2022-08-28T00:59:23.446Z,23.93
2022-08-28T00:59:58.298Z,23.92
2022-08-28T01:00:33.882Z,23.94
2022-08-28T01:01:06.583Z,23.93
2022-08-28T01:01:41.700Z,23.93
2022-08-28T01:02:14.173Z,23.94
2022-08-28T01:02:46.759Z,23.92
2022-08-28T01:03:26.434Z,23.92
2022-08-28T01:03:58.736Z,23.92
2022-08-28T01:04:32.519Z,23.92
2022-08-28T01:05:10.456Z,23.93
2022-08-28T01:05:43.718Z,23.93
2022-08-28T01:06:20.680Z,23.93
2022-08-28T01:06:58.255Z,23.93
2022-08-28T01:07:30.651Z,23.93
2022-08-28T01:08:04.522Z,23.94
2022-08-28T01:08:43.597Z,23.95
2022-08-28T01:09:21.008Z,23.95
2022-08-28T01:09:55.125Z,23.97
2022-08-28T01:10:33.542Z,23.97
2022-08-28T01:11:07.533Z,23.96
2022-08-28T01:11:42.086Z,23.97
2022-08-28T01:12:20.807Z,23.98
2022-08-28T01:12:54.895Z,23.96
2022-08-28T01:13:28.039Z,23.99
2022-08-28T01:14:05.485Z,24.00
2022-08-28T01:14:41.208Z,24.00
2022-08-28T01:15:19.458Z,23.98
2022-08-28T01:15:52.055Z,23.97
2022-08-28T01:16:31.605Z,23.98
2022-08-28T01:17:10.730Z,23.97
2022-08-28T01:17:50.137Z,23.98
2022-08-28T01:18:22.922Z,23.95
2022-08-28T01:18:58.119Z,24.00
2022-08-28T01:19:37.467Z,23.96
2022-08-28T01:20:16.014Z,23.94
2022-08-28T01:20:55.112Z,23.93
2022-08-28T01:21:37.775Z,23.91
2022-08-28T01:22:21.220Z,23.91
2022-08-28T01:23:01.840Z,23.89
2022-08-28T01:23:58.207Z,23.86
2022-08-28T01:24:31.474Z,23.87
2022-08-28T01:25:07.427Z,23.89
2022-08-28T01:25:43.667Z,23.90
2022-08-28T01:26:15.921Z,23.90
2022-08-28T01:26:48.107Z,23.90
2022-08-28T01:27:21.814Z,23.89
2022-08-28T01:28:00.257Z,23.87
2022-08-28T01:28:32.555Z,23.88
2022-08-28T01:29:05.292Z,23.88
2022-08-28T01:29:40.206Z,23.89
2022-08-28T01:30:16.891Z,23.88
2022-08-28T01:30:51.917Z,23.86
2022-08-28T01:31:25.427Z,23.85
2022-08-28T01:31:57.889Z,23.86
2022-08-28T01:32:36.609Z,23.87
2022-08-28T01:33:08.900Z,23.83
2022-08-28T01:33:46.389Z,23.82
2022-08-28T01:34:21.354Z,23.80
2022-08-28T01:34:53.538Z,23.81
2022-08-28T01:35:28.764Z,23.80
2022-08-28T01:36:03.639Z,23.80
2022-08-28T01:36:37.029Z,23.79
2022-08-28T01:37:09.175Z,23.80
2022-08-28T01:37:42.304Z,23.80
2022-08-28T01:38:20.219Z,23.80
2022-08-28T01:39:05.182Z,23.77
2022-08-28T01:39:40.061Z,23.77
2022-08-28T01:40:17.762Z,23.79
2022-08-28T01:40:53.653Z,23.80
2022-08-28T01:41:29.682Z,23.80
2022-08-28T01:42:02.887Z,23.84
2022-08-28T01:42:37.136Z,23.81
2022-08-28T01:43:14.279Z,23.80
2022-08-28T01:43:46.561Z,23.78
2022-08-28T01:44:25.885Z,23.79
2022-08-28T01:45:00.625Z,23.78
2022-08-28T01:45:32.833Z,23.79
2022-08-28T01:46:06.312Z,23.80
2022-08-28T01:46:44.061Z,23.80
2022-08-28T01:47:16.829Z,23.80
2022-08-28T01:47:49.177Z,23.79
2022-08-28T01:48:29.083Z,23.79
2022-08-28T01:49:01.328Z,23.78
2022-08-28T01:49:34.823Z,23.76
2022-08-28T01:50:11.484Z,23.76
2022-08-28T01:50:45.353Z,23.76
2022-08-28T01:51:20.486Z,23.77
2022-08-28T01:52:00.828Z,23.76
2022-08-28T01:52:36.642Z,23.72
2022-08-28T01:53:12.446Z,23.72
2022-08-28T01:53:47.310Z,23.73
2022-08-28T01:54:22.045Z,23.73
2022-08-28T01:54:54.648Z,23.70
2022-08-28T01:55:30.951Z,23.72
2022-08-28T01:56:08.748Z,23.69
2022-08-28T01:56:42.323Z,23.70
2022-08-28T01:57:17.990Z,23.68
2022-08-28T01:57:54.163Z,23.64
2022-08-28T01:58:28.110Z,23.64
2022-08-28T01:59:08.141Z,23.66
2022-08-28T01:59:40.422Z,23.63
2022-08-28T02:00:15.260Z,23.64
2022-08-28T02:00:50.155Z,23.65
2022-08-28T02:01:23.055Z,23.63
2022-08-28T02:01:58.057Z,23.64
2022-08-28T02:02:31.876Z,23.63
2022-08-28T02:03:04.144Z,23.67
2022-08-28T02:03:36.377Z,23.68
2022-08-28T02:04:11.592Z,23.68
2022-08-28T02:04:47.944Z,23.67
2022-08-28T02:05:20.437Z,23.69
2022-08-28T02:05:55.287Z,23.68
2022-08-28T02:06:27.465Z,23.68
2022-08-28T02:07:00.106Z,23.69
2022-08-28T02:07:35.329Z,23.69
2022-08-28T02:08:08.369Z,23.70
2022-08-28T02:08:41.074Z,23.69
2022-08-28T02:09:15.909Z,23.70
2022-08-28T02:09:50.607Z,23.71
2022-08-28T02:10:25.461Z,23.70
2022-08-28T02:11:00.818Z,23.70
2022-08-28T02:11:33.175Z,23.71
2022-08-28T02:12:07.044Z,23.71
2022-08-28T02:12:43.230Z,23.72
2022-08-28T02:13:15.589Z,23.70
2022-08-28T02:13:51.443Z,23.71
2022-08-28T02:14:29.267Z,23.71
2022-08-28T02:15:01.457Z,23.70
2022-08-28T02:15:38.395Z,23.71
2022-08-28T02:16:11.101Z,23.72
2022-08-28T02:16:43.474Z,23.71
2022-08-28T02:17:18.178Z,23.70
2022-08-28T02:17:50.414Z,23.70
2022-08-28T02:18:22.979Z,23.70
2022-08-28T02:18:57.988Z,23.70
2022-08-28T02:19:32.112Z,23.71
2022-08-28T02:20:05.710Z,23.69
2022-08-28T02:20:43.041Z,23.70
2022-08-28T02:21:15.329Z,23.70
2022-08-28T02:21:47.654Z,23.71
2022-08-28T02:22:22.391Z,23.72
2022-08-28T02:22:55.196Z,23.71
2022-08-28T02:23:27.611Z,23.73
2022-08-28T02:24:02.594Z,23.72
2022-08-28T02:24:34.855Z,23.74
2022-08-28T02:25:14.032Z,23.75
2022-08-28T02:25:49.901Z,23.74
2022-08-28T02:26:23.618Z,23.74
2022-08-28T02:26:55.838Z,23.75
2022-08-28T02:27:28.058Z,23.76
2022-08-28T02:28:02.957Z,23.79
2022-08-28T02:28:35.150Z,23.78
2022-08-28T02:29:07.398Z,23.77
2022-08-28T02:29:42.409Z,23.78
2022-08-28T02:30:18.187Z,23.77
2022-08-28T02:30:50.448Z,23.76
2022-08-28T02:31:25.254Z,23.77
2022-08-28T02:31:57.616Z,23.76
2022-08-28T02:32:29.933Z,23.76
2022-08-28T02:33:04.773Z,23.77
2022-08-28T02:33:38.465Z,23.78
2022-08-28T02:34:11.248Z,23.78
2022-08-28T02:34:46.169Z,23.78
2022-08-28T02:35:20.036Z,23.80
2022-08-28T02:35:53.071Z,23.80
2022-08-28T02:36:27.825Z,23.82
2022-08-28T02:36:59.983Z,23.82
2022-08-28T02:37:32.169Z,23.84
2022-08-28T02:38:07.208Z,23.84
2022-08-28T02:38:39.566Z,23.85
2022-08-28T02:39:12.118Z,23.86
2022-08-28T02:39:46.937Z,23.87
2022-08-28T02:40:23.803Z,23.86
2022-08-28T02:40:56.143Z,23.84
2022-08-28T02:41:31.460Z,23.88
2022-08-28T02:42:03.986Z,23.87
2022-08-28T02:42:36.147Z,23.91
2022-08-28T02:43:10.974Z,23.92
2022-08-28T02:43:43.218Z,23.94
2022-08-28T02:44:15.347Z,23.97
2022-08-28T02:44:50.052Z,23.99
2022-08-28T02:45:22.330Z,24.01
2022-08-28T02:45:54.497Z,24.04
2022-08-28T02:46:29.358Z,24.06
2022-08-28T02:47:01.682Z,24.07
2022-08-28T02:47:33.808Z,24.08
2022-08-28T02:48:15.590Z,24.10
2022-08-28T02:48:50.457Z,24.08
2022-08-28T02:49:23.234Z,24.09
2022-08-28T02:49:58.078Z,24.12
2022-08-28T02:50:31.616Z,24.12
2022-08-28T02:51:06.564Z,24.13
2022-08-28T02:51:41.357Z,24.13
2022-08-28T02:52:13.697Z,24.14
2022-08-28T02:52:46.671Z,24.16
2022-08-28T02:53:23.819Z,24.17
2022-08-28T02:53:56.463Z,24.17
2022-08-28T02:54:28.662Z,24.18
2022-08-28T02:55:03.376Z,24.19
2022-08-28T02:55:39.912Z,24.20
2022-08-28T02:56:12.368Z,24.20
2022-08-28T02:56:47.150Z,24.20
2022-08-28T02:57:19.307Z,24.20
2022-08-28T02:57:52.855Z,24.21
2022-08-28T02:58:28.590Z,24.22
2022-08-28T02:59:00.853Z,24.21
2022-08-28T02:59:33.123Z,24.23
2022-08-28T03:00:06.451Z,24.23
2022-08-28T03:00:42.208Z,24.23
2022-08-28T03:01:14.511Z,24.23
2022-08-28T03:01:46.843Z,24.24
2022-08-28T03:02:21.799Z,24.24
2022-08-28T03:02:55.243Z,24.23
2022-08-28T03:03:28.181Z,24.24
2022-08-28T03:04:05.496Z,24.26
2022-08-28T03:04:38.575Z,24.25
2022-08-28T03:05:11.542Z,24.26
2022-08-28T03:05:46.355Z,24.28
2022-08-28T03:06:18.660Z,24.28
2022-08-28T03:06:51.188Z,24.29
2022-08-28T03:07:25.987Z,24.30
2022-08-28T03:07:58.264Z,24.30
2022-08-28T03:08:32.117Z,24.31
2022-08-28T03:09:07.205Z,24.31
2022-08-28T03:09:40.382Z,24.30
2022-08-28T03:10:13.479Z,24.31
2022-08-28T03:10:50.810Z,24.33
2022-08-28T03:11:23.516Z,24.31
2022-08-28T03:11:55.835Z,24.33
2022-08-28T03:12:30.640Z,24.33
2022-08-28T03:13:02.798Z,24.33
2022-08-28T03:13:35.473Z,24.33
2022-08-28T03:14:10.576Z,24.34
2022-08-28T03:14:42.937Z,24.33
2022-08-28T03:15:15.172Z,24.34
2022-08-28T03:15:55.525Z,24.33
2022-08-28T03:16:28.350Z,24.32
2022-08-28T03:17:01.485Z,24.33
2022-08-28T03:17:37.032Z,24.33
2022-08-28T03:18:11.335Z,24.33
2022-08-28T03:18:46.351Z,24.34
2022-08-28T03:19:19.157Z,24.32
2022-08-28T03:19:52.318Z,24.33
2022-08-28T03:20:27.206Z,24.33
2022-08-28T03:20:59.659Z,24.34
2022-08-28T03:21:31.834Z,24.33
2022-08-28T03:22:06.906Z,24.35
2022-08-28T03:22:54.295Z,24.34
2022-08-28T03:23:26.482Z,24.31
2022-08-28T03:23:58.687Z,24.31
2022-08-28T03:24:30.945Z,24.33
2022-08-28T03:25:04.107Z,24.33
2022-08-28T03:25:38.861Z,24.34
2022-08-28T03:26:16.701Z,24.35
2022-08-28T03:26:49.283Z,24.34
2022-08-28T03:27:23.992Z,24.33
2022-08-28T03:27:56.522Z,24.37
2022-08-28T03:28:30.800Z,24.36
2022-08-28T03:29:06.087Z,24.37
2022-08-28T03:29:38.451Z,24.37
2022-08-28T03:30:11.828Z,24.36
2022-08-28T03:30:46.668Z,24.38
2022-08-28T03:31:21.687Z,24.36
2022-08-28T03:31:56.675Z,24.35
2022-08-28T03:32:29.391Z,24.34
2022-08-28T03:33:01.765Z,24.36
2022-08-28T03:33:37.002Z,24.37
2022-08-28T03:34:09.684Z,24.34
2022-08-28T03:34:41.841Z,24.34
2022-08-28T03:35:14.054Z,24.33
2022-08-28T03:35:49.024Z,24.33
2022-08-28T03:36:25.865Z,24.32
2022-08-28T03:36:58.050Z,24.31
2022-08-28T03:37:30.205Z,24.30
2022-08-28T03:38:04.982Z,24.30
2022-08-28T03:38:37.211Z,24.29
2022-08-28T03:39:12.024Z,24.29
2022-08-28T03:39:44.252Z,24.28
2022-08-28T03:40:16.887Z,24.27
2022-08-28T03:40:51.834Z,24.29
2022-08-28T03:41:30.201Z,24.27
2022-08-28T03:42:02.439Z,24.26
2022-08-28T03:42:35.275Z,24.26
2022-08-28T03:43:10.080Z,24.26
2022-08-28T03:43:42.740Z,24.25
2022-08-28T03:44:15.917Z,24.24
2022-08-28T03:44:49.292Z,24.24
2022-08-28T03:45:24.871Z,24.24
2022-08-28T03:46:00.429Z,24.25
2022-08-28T03:46:34.037Z,24.24
2022-08-28T03:47:09.217Z,24.25
2022-08-28T03:47:43.128Z,24.25
2022-08-28T03:48:15.622Z,24.28
2022-08-28T03:48:51.234Z,24.28
2022-08-28T03:49:23.434Z,24.28
2022-08-28T03:49:56.630Z,24.30
2022-08-28T03:50:31.748Z,24.31
2022-08-28T03:51:08.203Z,24.31
2022-08-28T03:51:44.226Z,24.30
2022-08-28T03:52:16.427Z,24.29
2022-08-28T03:52:48.707Z,24.30
2022-08-28T03:53:23.670Z,24.30
2022-08-28T03:53:56.526Z,24.31
2022-08-28T03:54:31.802Z,24.32
2022-08-28T03:55:07.734Z,24.33
2022-08-28T03:55:41.327Z,24.32
2022-08-28T03:56:22.450Z,24.31
2022-08-28T03:56:57.208Z,24.29
2022-08-28T03:57:30.016Z,24.29
2022-08-28T03:58:04.884Z,24.29
2022-08-28T03:58:38.594Z,24.29
2022-08-28T03:59:10.758Z,24.29
2022-08-28T03:59:45.539Z,24.29
2022-08-28T04:00:19.253Z,24.29
2022-08-28T04:00:51.730Z,24.29
2022-08-28T04:01:26.610Z,24.30
2022-08-28T04:01:58.849Z,24.28
2022-08-28T04:02:31.506Z,24.29
2022-08-28T04:03:06.942Z,24.29
2022-08-28T04:03:39.267Z,24.27
2022-08-28T04:04:11.451Z,24.28
2022-08-28T04:04:46.254Z,24.28
2022-08-28T04:05:18.643Z,24.28
2022-08-28T04:05:52.014Z,24.28
2022-08-28T04:06:27.685Z,24.28
2022-08-28T04:06:59.879Z,24.26
2022-08-28T04:07:32.115Z,24.27
2022-08-28T04:08:07.784Z,24.26
2022-08-28T04:08:40.572Z,24.27
2022-08-28T04:09:12.914Z,24.28
2022-08-28T04:09:47.795Z,24.28
2022-08-28T04:10:20.192Z,24.29
2022-08-28T04:10:52.865Z,24.30
2022-08-28T04:11:27.791Z,24.30
2022-08-28T04:12:02.822Z,24.30
2022-08-28T04:12:36.153Z,24.32
2022-08-28T04:13:11.278Z,24.32
2022-08-28T04:13:43.523Z,24.33
2022-08-28T04:14:16.985Z,24.34
2022-08-28T04:14:51.765Z,24.39
2022-08-28T04:15:24.005Z,24.37
2022-08-28T04:15:58.437Z,24.38
2022-08-28T04:16:33.203Z,24.37
2022-08-28T04:17:06.049Z,24.39
2022-08-28T04:17:39.110Z,24.39
2022-08-28T04:18:15.110Z,24.40
2022-08-28T04:18:50.006Z,24.39
2022-08-28T04:19:22.303Z,24.39
2022-08-28T04:19:57.373Z,24.40
2022-08-28T04:20:29.909Z,24.40
2022-08-28T04:21:05.818Z,24.41
2022-08-28T04:21:40.654Z,24.38
2022-08-28T04:22:13.007Z,24.37
2022-08-28T04:22:45.249Z,24.39
2022-08-28T04:23:19.986Z,24.37
2022-08-28T04:23:52.361Z,24.34
2022-08-28T04:24:24.687Z,24.34
2022-08-28T04:24:59.455Z,24.33
2022-08-28T04:25:32.057Z,24.32
2022-08-28T04:26:05.055Z,24.32
2022-08-28T04:26:39.887Z,24.32
2022-08-28T04:27:15.137Z,24.33
2022-08-28T04:27:47.858Z,24.33
2022-08-28T04:28:22.830Z,24.33
2022-08-28T04:28:56.188Z,24.31
2022-08-28T04:29:30.332Z,24.30
2022-08-28T04:30:05.144Z,24.29
2022-08-28T04:30:41.420Z,24.28
2022-08-28T04:31:15.072Z,24.27
2022-08-28T04:31:49.970Z,24.26
2022-08-28T04:32:22.860Z,24.25
2022-08-28T04:32:54.995Z,24.24
2022-08-28T04:33:31.194Z,24.23
2022-08-28T04:34:06.021Z,24.22
2022-08-28T04:34:38.280Z,24.22
2022-08-28T04:35:15.008Z,24.23
2022-08-28T04:35:47.270Z,24.23
2022-08-28T04:36:19.959Z,24.23
2022-08-28T04:36:55.558Z,24.23
2022-08-28T04:37:27.889Z,24.22
2022-08-28T04:38:00.205Z,24.23
2022-08-28T04:38:35.059Z,24.24
2022-08-28T04:39:08.795Z,24.24
2022-08-28T04:39:40.968Z,24.24
2022-08-28T04:40:16.103Z,24.24
2022-08-28T04:40:48.463Z,24.23
2022-08-28T04:41:20.865Z,24.23
2022-08-28T04:41:58.297Z,24.22
2022-08-28T04:42:33.019Z,24.20
2022-08-28T04:43:05.299Z,24.20
2022-08-28T04:43:40.138Z,24.19
2022-08-28T04:44:12.468Z,24.18
2022-08-28T04:44:44.629Z,24.18
2022-08-28T04:45:19.599Z,24.19
2022-08-28T04:45:51.855Z,24.18
2022-08-28T04:46:24.719Z,24.21
2022-08-28T04:46:59.543Z,24.20
2022-08-28T04:47:35.138Z,24.21
2022-08-28T04:48:13.089Z,24.21
2022-08-28T04:48:48.634Z,24.21
2022-08-28T04:49:21.026Z,24.20
2022-08-28T04:49:53.533Z,24.22
2022-08-28T04:50:28.650Z,24.22
2022-08-28T04:51:00.849Z,24.20
2022-08-28T04:51:33.438Z,24.19
2022-08-28T04:52:08.474Z,24.22
2022-08-28T04:52:40.742Z,24.19
2022-08-28T04:53:14.090Z,24.19
2022-08-28T04:53:48.875Z,24.19
2022-08-28T04:54:21.443Z,24.19
2022-08-28T04:54:53.642Z,24.19
2022-08-28T04:55:27.872Z,24.21
2022-08-28T04:56:20.714Z,24.16
2022-08-28T04:56:52.996Z,24.17
2022-08-28T04:57:27.894Z,24.21
2022-08-28T04:58:02.658Z,24.22
2022-08-28T04:58:35.106Z,24.24
2022-08-28T04:59:10.251Z,24.25
2022-08-28T04:59:45.147Z,24.25
2022-08-28T05:00:17.759Z,24.25
2022-08-28T05:00:52.654Z,24.27
2022-08-28T05:01:25.825Z,24.27
2022-08-28T05:01:58.194Z,24.28
2022-08-28T05:02:33.114Z,24.29
2022-08-28T05:03:05.780Z,24.31
2022-08-28T05:03:38.033Z,24.31
2022-08-28T05:04:14.330Z,24.33
2022-08-28T05:04:47.417Z,24.33
2022-08-28T05:05:20.012Z,24.33
2022-08-28T05:05:57.868Z,24.34
2022-08-28T05:06:31.729Z,24.35
2022-08-28T05:07:06.695Z,24.36
2022-08-28T05:07:38.909Z,24.38
2022-08-28T05:08:15.871Z,24.39
2022-08-28T05:08:50.734Z,24.39
2022-08-28T05:09:22.940Z,24.39
2022-08-28T05:09:55.145Z,24.40
2022-08-28T05:10:30.137Z,24.41
2022-08-28T05:11:10.958Z,24.40
2022-08-28T05:11:46.517Z,24.40
2022-08-28T05:12:19.838Z,24.41
2022-08-28T05:12:54.889Z,24.42
2022-08-28T05:13:29.630Z,24.43
2022-08-28T05:14:05.576Z,24.44
2022-08-28T05:14:37.858Z,24.43
2022-08-28T05:15:11.339Z,24.44
2022-08-28T05:15:46.123Z,24.44
2022-08-28T05:16:22.110Z,24.45
2022-08-28T05:16:55.588Z,24.46
2022-08-28T05:17:27.919Z,24.46
2022-08-28T05:18:07.255Z,24.46
2022-08-28T05:18:39.615Z,24.46
2022-08-28T05:19:15.156Z,24.46
2022-08-28T05:19:48.323Z,24.45
2022-08-28T05:20:23.130Z,24.43
2022-08-28T05:20:55.351Z,24.43
2022-08-28T05:21:28.359Z,24.40
2022-08-28T05:22:03.148Z,24.40
2022-08-28T05:22:35.657Z,24.40
2022-08-28T05:23:09.403Z,24.41
2022-08-28T05:23:44.577Z,24.40
2022-08-28T05:24:17.138Z,24.40
2022-08-28T05:24:49.287Z,24.40
2022-08-28T05:25:24.089Z,24.41
2022-08-28T05:25:56.579Z,24.40
2022-08-28T05:26:29.901Z,24.39
2022-08-28T05:27:08.767Z,24.38
2022-08-28T05:27:41.370Z,24.38
2022-08-28T05:28:17.074Z,24.39
2022-08-28T05:28:56.361Z,24.39
2022-08-28T05:29:28.524Z,24.37
2022-08-28T05:30:02.214Z,24.37
2022-08-28T05:30:37.397Z,24.37
2022-08-28T05:31:10.965Z,24.37
2022-08-28T05:31:43.295Z,24.37
2022-08-28T05:32:18.726Z,24.37
2022-08-28T05:32:50.881Z,24.37
2022-08-28T05:33:23.098Z,24.35
2022-08-28T05:33:58.437Z,24.36
2022-08-28T05:34:31.830Z,24.36
2022-08-28T05:35:04.762Z,24.37
2022-08-28T05:35:41.554Z,24.36
2022-08-28T05:36:15.833Z,24.35
2022-08-28T05:36:48.834Z,24.35
2022-08-28T05:37:23.618Z,24.36
2022-08-28T05:37:56.036Z,24.34
2022-08-28T05:38:28.746Z,24.36
2022-08-28T05:39:05.679Z,24.35
2022-08-28T05:39:37.927Z,24.36
2022-08-28T05:40:11.011Z,24.38
2022-08-28T05:40:48.290Z,24.40
2022-08-28T05:41:21.838Z,24.38
2022-08-28T05:41:56.672Z,24.38
2022-08-28T05:42:30.585Z,24.38
2022-08-28T05:43:03.590Z,24.38
2022-08-28T05:43:39.283Z,24.38
2022-08-28T05:44:16.234Z,24.38
2022-08-28T05:44:54.677Z,24.36
2022-08-28T05:45:27.115Z,24.36
2022-08-28T05:46:01.279Z,24.38
2022-08-28T05:46:36.955Z,24.36
2022-08-28T05:47:09.351Z,24.38
2022-08-28T05:47:41.566Z,24.38
2022-08-28T05:48:16.423Z,24.37
2022-08-28T05:48:49.538Z,24.35
2022-08-28T05:49:25.031Z,24.34
2022-08-28T05:49:57.187Z,24.33
2022-08-28T05:50:29.388Z,24.34
2022-08-28T05:51:10.109Z,24.34
2022-08-28T05:51:43.192Z,24.32
2022-08-28T05:52:16.071Z,24.32
2022-08-28T05:52:50.848Z,24.35
2022-08-28T05:53:23.436Z,24.32
2022-08-28T05:53:57.770Z,24.33
2022-08-28T05:54:32.883Z,24.33
2022-08-28T05:55:06.809Z,24.34
2022-08-28T05:55:40.576Z,24.34
2022-08-28T05:56:18.509Z,24.33
2022-08-28T05:56:50.699Z,24.31
2022-08-28T05:57:22.893Z,24.31
2022-08-28T05:58:17.639Z,24.31
2022-08-28T05:58:49.937Z,24.25
2022-08-28T05:59:27.315Z,24.27
2022-08-28T05:59:59.482Z,24.26
2022-08-28T06:00:32.807Z,24.27
2022-08-28T06:01:10.780Z,24.27
2022-08-28T06:01:48.120Z,24.26
2022-08-28T06:02:20.341Z,24.25
2022-08-28T06:02:52.628Z,24.26
2022-08-28T06:03:27.459Z,24.26
2022-08-28T06:04:02.443Z,24.24
2022-08-28T06:04:37.510Z,24.21
2022-08-28T06:05:12.640Z,24.19
2022-08-28T06:05:45.514Z,24.17
2022-08-28T06:06:20.304Z,24.16
2022-08-28T06:06:53.265Z,24.13
2022-08-28T06:07:28.072Z,24.12
2022-08-28T06:08:00.489Z,24.08
2022-08-28T06:08:32.830Z,24.07
2022-08-28T06:09:10.530Z,24.06
2022-08-28T06:09:43.887Z,23.99
2022-08-28T06:10:16.189Z,24.01
2022-08-28T06:10:51.171Z,23.99
2022-08-28T06:11:23.607Z,24.00
2022-08-28T06:12:02.474Z,24.01
2022-08-28T06:12:34.737Z,24.02
2022-08-28T06:13:07.126Z,24.03
2022-08-28T06:13:42.518Z,24.07
2022-08-28T06:14:18.370Z,24.08
2022-08-28T06:14:55.855Z,24.11
2022-08-28T06:15:29.181Z,24.12
2022-08-28T06:16:01.422Z,24.15
2022-08-28T06:16:36.414Z,24.18
2022-08-28T06:17:08.838Z,24.22
2022-08-28T06:17:41.041Z,24.25
2022-08-28T06:18:16.506Z,24.26
2022-08-28T06:18:48.952Z,24.27
2022-08-28T06:19:23.177Z,24.29
2022-08-28T06:19:57.993Z,24.31
2022-08-28T06:20:30.234Z,24.32
2022-08-28T06:21:02.963Z,24.35
2022-08-28T06:21:37.950Z,24.37
2022-08-28T06:22:12.408Z,24.39
2022-08-28T06:22:44.612Z,24.40
2022-08-28T06:23:24.232Z,24.43
2022-08-28T06:23:57.065Z,24.42
2022-08-28T06:24:33.093Z,24.44
2022-08-28T06:25:08.171Z,24.45
2022-08-28T06:25:41.486Z,24.44
2022-08-28T06:26:18.591Z,24.47
2022-08-28T06:26:52.155Z,24.47
2022-08-28T06:27:25.365Z,24.47
2022-08-28T06:28:00.311Z,24.48
2022-08-28T06:28:33.135Z,24.50
2022-08-28T06:29:08.044Z,24.51
2022-08-28T06:29:43.473Z,24.52
2022-08-28T06:30:18.369Z,24.55
2022-08-28T06:31:18.510Z,24.56
2022-08-28T06:31:48.921Z,24.55
2022-08-28T06:32:21.263Z,24.58
2022-08-28T06:32:53.485Z,24.61
2022-08-28T06:33:28.331Z,24.63
2022-08-28T06:34:01.595Z,24.66
2022-08-28T06:34:36.380Z,24.68
2022-08-28T06:35:08.755Z,24.69
2022-08-28T06:35:43.345Z,24.72
2022-08-28T06:36:18.115Z,24.73
2022-08-28T06:36:53.823Z,24.76
2022-08-28T06:37:26.734Z,24.77
2022-08-28T06:38:01.985Z,24.79
2022-08-28T06:38:34.529Z,24.81
2022-08-28T06:39:07.449Z,24.80
2022-08-28T06:39:42.280Z,24.80
2022-08-28T06:40:15.018Z,24.78
2022-08-28T06:40:53.260Z,24.79
2022-08-28T06:41:28.549Z,24.79
2022-08-28T06:42:02.574Z,24.81
2022-08-28T06:42:34.758Z,24.83
2022-08-28T06:43:09.873Z,24.83
2022-08-28T06:43:42.179Z,24.80
2022-08-28T06:44:19.748Z,24.81
2022-08-28T06:44:54.533Z,24.81
2022-08-28T06:45:29.403Z,24.80
2022-08-28T06:46:02.363Z,24.79
2022-08-28T06:46:38.494Z,24.78
2022-08-28T06:47:11.654Z,24.74
2022-08-28T06:47:43.938Z,24.72
2022-08-28T06:48:21.087Z,24.71
2022-08-28T06:48:53.510Z,24.66
2022-08-28T06:49:25.689Z,24.63
2022-08-28T06:50:00.546Z,24.63
2022-08-28T06:50:32.839Z,24.61
2022-08-28T06:51:07.762Z,24.60
2022-08-28T06:51:42.944Z,24.59
2022-08-28T06:52:15.261Z,24.60
2022-08-28T06:52:47.927Z,24.61
2022-08-28T06:53:25.233Z,24.63
2022-08-28T06:53:57.564Z,24.64
2022-08-28T06:54:31.168Z,24.66
2022-08-28T06:55:06.111Z,24.68
2022-08-28T06:55:39.147Z,24.71
2022-08-28T06:56:13.736Z,24.73
2022-08-28T06:57:00.634Z,24.72
2022-08-28T06:57:32.894Z,24.75
2022-08-28T06:58:06.290Z,24.78
2022-08-28T06:58:43.375Z,24.80
2022-08-28T06:59:22.417Z,24.81
2022-08-28T06:59:56.041Z,24.84
2022-08-28T07:00:33.538Z,24.89
2022-08-28T07:01:08.934Z,24.89
2022-08-28T07:01:43.744Z,24.93
2022-08-28T07:02:16.765Z,24.96
2022-08-28T07:02:49.135Z,25.00
2022-08-28T07:03:23.995Z,25.03
2022-08-28T07:03:59.546Z,25.06
2022-08-28T07:04:34.473Z,25.08
2022-08-28T07:05:08.820Z,25.12
2022-08-28T07:05:41.573Z,25.14
2022-08-28T07:06:17.670Z,25.19
2022-08-28T07:06:54.249Z,25.20
2022-08-28T07:07:31.826Z,25.20
2022-08-28T07:08:07.593Z,25.20
2022-08-28T07:08:41.223Z,25.20
2022-08-28T07:09:16.042Z,25.20
2022-08-28T07:09:48.400Z,25.22
2022-08-28T07:10:21.034Z,25.22
2022-08-28T07:10:55.995Z,25.21
2022-08-28T07:11:30.446Z,25.22
2022-08-28T07:12:05.538Z,25.21
2022-08-28T07:12:38.387Z,25.21
2022-08-28T07:13:10.567Z,25.21
2022-08-28T07:13:44.206Z,25.22
2022-08-28T07:14:19.329Z,25.21
2022-08-28T07:14:51.505Z,25.21
2022-08-28T07:15:23.701Z,25.21
2022-08-28T07:16:02.214Z,25.22
2022-08-28T07:16:38.468Z,25.22
2022-08-28T07:17:13.455Z,25.23
2022-08-28T07:17:45.726Z,25.23
2022-08-28T07:18:18.518Z,25.26
2022-08-28T07:18:53.310Z,25.28
2022-08-28T07:19:25.491Z,25.29
2022-08-28T07:19:57.841Z,25.31
2022-08-28T07:20:32.854Z,25.31
2022-08-28T07:21:11.603Z,25.30
2022-08-28T07:21:48.346Z,25.30
2022-08-28T07:22:20.665Z,25.32
2022-08-28T07:22:59.360Z,25.34
2022-08-28T07:23:35.397Z,25.36
2022-08-28T07:24:11.502Z,25.38
2022-08-28T07:24:43.671Z,25.39